sensor_id;sensor_type;location;lat;lon;timestamp;temperature;humidity
9919;DHT22;4998;51.024;13.828;2024-01-11T00:02:14;-1.70;58.30
9919;DHT22;4998;51.024;13.828;2024-01-11T00:04:41;-1.70;58.30
9919;DHT22;4998;51.024;13.828;2024-01-11T00:07:11;-1.80;58.40
9919;DHT22;4998;51.024;13.828;2024-01-11T00:09:39;-1.80;58.40
9919;DHT22;4998;51.024;13.828;2024-01-11T00:12:07;-1.80;58.50
9919;DHT22;4998;51.024;13.828;2024-01-11T00:14:34;-1.80;58.40
9919;DHT22;4998;51.024;13.828;2024-01-11T00:17:02;-1.80;58.50
9919;DHT22;4998;51.024;13.828;2024-01-11T00:19:29;-1.80;58.60
9919;DHT22;4998;51.024;13.828;2024-01-11T00:21:56;-1.80;58.60
9919;DHT22;4998;51.024;13.828;2024-01-11T00:24:25;-1.80;58.50
9919;DHT22;4998;51.024;13.828;2024-01-11T00:26:53;-1.80;58.40
9919;DHT22;4998;51.024;13.828;2024-01-11T00:29:20;-1.80;58.20
9919;DHT22;4998;51.024;13.828;2024-01-11T00:31:47;-1.90;58.60
9919;DHT22;4998;51.024;13.828;2024-01-11T00:34:14;-1.90;58.00
9919;DHT22;4998;51.024;13.828;2024-01-11T00:36:41;-2.00;57.90
9919;DHT22;4998;51.024;13.828;2024-01-11T00:39:09;-2.00;58.00
9919;DHT22;4998;51.024;13.828;2024-01-11T00:41:39;-2.10;58.00
9919;DHT22;4998;51.024;13.828;2024-01-11T00:44:06;-2.10;58.10
9919;DHT22;4998;51.024;13.828;2024-01-11T00:46:34;-2.20;58.10
9919;DHT22;4998;51.024;13.828;2024-01-11T00:49:01;-2.20;58.20
9919;DHT22;4998;51.024;13.828;2024-01-11T00:51:28;-2.20;58.20
9919;DHT22;4998;51.024;13.828;2024-01-11T00:53:55;-2.20;58.30
9919;DHT22;4998;51.024;13.828;2024-01-11T00:56:22;-2.20;58.30
9919;DHT22;4998;51.024;13.828;2024-01-11T00:58:51;-2.20;58.30
9919;DHT22;4998;51.024;13.828;2024-01-11T01:01:18;-2.20;58.20
9919;DHT22;4998;51.024;13.828;2024-01-11T01:03:45;-2.30;58.10
9919;DHT22;4998;51.024;13.828;2024-01-11T01:06:12;-2.20;58.20
9919;DHT22;4998;51.024;13.828;2024-01-11T01:08:40;-2.30;58.10
9919;DHT22;4998;51.024;13.828;2024-01-11T01:11:07;-2.30;58.20
9919;DHT22;4998;51.024;13.828;2024-01-11T01:13:34;-2.30;58.20
9919;DHT22;4998;51.024;13.828;2024-01-11T01:16:03;-2.30;58.20
9919;DHT22;4998;51.024;13.828;2024-01-11T01:18:30;-2.30;58.20
9919;DHT22;4998;51.024;13.828;2024-01-11T01:20:58;-2.30;58.20
9919;DHT22;4998;51.024;13.828;2024-01-11T01:23:25;-2.50;58.10
9919;DHT22;4998;51.024;13.828;2024-01-11T01:25:52;-2.30;58.20
9919;DHT22;4998;51.024;13.828;2024-01-11T01:28:19;-2.30;58.20
9919;DHT22;4998;51.024;13.828;2024-01-11T01:30:47;-2.30;58.20
9919;DHT22;4998;51.024;13.828;2024-01-11T01:33:15;-2.30;58.40
9919;DHT22;4998;51.024;13.828;2024-01-11T01:35:43;-2.30;58.30
9919;DHT22;4998;51.024;13.828;2024-01-11T01:38:11;-2.40;58.30
9919;DHT22;4998;51.024;13.828;2024-01-11T01:40:39;-2.40;58.30
9919;DHT22;4998;51.024;13.828;2024-01-11T01:43:07;-2.40;58.30
9919;DHT22;4998;51.024;13.828;2024-01-11T01:45:35;-2.40;58.40
9919;DHT22;4998;51.024;13.828;2024-01-11T01:48:03;-2.40;58.40
9919;DHT22;4998;51.024;13.828;2024-01-11T01:50:32;-2.40;58.30
9919;DHT22;4998;51.024;13.828;2024-01-11T01:53:00;-2.40;58.20
9919;DHT22;4998;51.024;13.828;2024-01-11T01:55:29;-2.40;58.20
9919;DHT22;4998;51.024;13.828;2024-01-11T01:57:56;-2.50;58.00
9919;DHT22;4998;51.024;13.828;2024-01-11T02:00:24;-2.50;58.00
9919;DHT22;4998;51.024;13.828;2024-01-11T02:02:53;-2.60;57.90
9919;DHT22;4998;51.024;13.828;2024-01-11T02:05:22;-2.60;58.00
9919;DHT22;4998;51.024;13.828;2024-01-11T02:07:51;-2.70;57.90
9919;DHT22;4998;51.024;13.828;2024-01-11T02:10:19;-2.70;58.00
9919;DHT22;4998;51.024;13.828;2024-01-11T02:12:47;-2.80;57.80
9919;DHT22;4998;51.024;13.828;2024-01-11T02:15:14;-2.80;58.00
9919;DHT22;4998;51.024;13.828;2024-01-11T02:17:42;-2.80;58.00
9919;DHT22;4998;51.024;13.828;2024-01-11T02:20:10;-2.90;58.10
9919;DHT22;4998;51.024;13.828;2024-01-11T02:22:40;-2.90;58.10
9919;DHT22;4998;51.024;13.828;2024-01-11T02:25:09;-2.90;58.20
9919;DHT22;4998;51.024;13.828;2024-01-11T02:27:46;-2.90;58.20
9919;DHT22;4998;51.024;13.828;2024-01-11T02:30:14;-3.00;58.30
9919;DHT22;4998;51.024;13.828;2024-01-11T02:32:43;-3.00;58.30
9919;DHT22;4998;51.024;13.828;2024-01-11T02:35:12;-3.00;58.40
9919;DHT22;4998;51.024;13.828;2024-01-11T02:37:40;-3.00;58.40
9919;DHT22;4998;51.024;13.828;2024-01-11T02:40:10;-3.00;58.50
9919;DHT22;4998;51.024;13.828;2024-01-11T02:42:38;-3.00;58.60
9919;DHT22;4998;51.024;13.828;2024-01-11T02:45:06;-3.00;58.60
9919;DHT22;4998;51.024;13.828;2024-01-11T02:47:34;-3.00;58.80
9919;DHT22;4998;51.024;13.828;2024-01-11T02:50:01;-2.90;58.90
9919;DHT22;4998;51.024;13.828;2024-01-11T02:52:29;-2.90;58.90
9919;DHT22;4998;51.024;13.828;2024-01-11T02:54:56;-2.90;59.00
9919;DHT22;4998;51.024;13.828;2024-01-11T02:57:25;-2.90;59.00
9919;DHT22;4998;51.024;13.828;2024-01-11T02:59:52;-2.90;59.00
9919;DHT22;4998;51.024;13.828;2024-01-11T03:02:19;-2.90;59.00
9919;DHT22;4998;51.024;13.828;2024-01-11T03:04:46;-2.90;59.00
9919;DHT22;4998;51.024;13.828;2024-01-11T03:07:14;-2.90;59.00
9919;DHT22;4998;51.024;13.828;2024-01-11T03:09:41;-2.90;59.00
9919;DHT22;4998;51.024;13.828;2024-01-11T03:12:09;-2.90;59.00
9919;DHT22;4998;51.024;13.828;2024-01-11T03:14:38;-2.90;58.90
9919;DHT22;4998;51.024;13.828;2024-01-11T03:17:05;-2.90;59.00
9919;DHT22;4998;51.024;13.828;2024-01-11T03:19:32;-3.00;58.80
9919;DHT22;4998;51.024;13.828;2024-01-11T03:21:59;-3.00;58.90
9919;DHT22;4998;51.024;13.828;2024-01-11T03:24:31;-2.90;58.90
9919;DHT22;4998;51.024;13.828;2024-01-11T03:26:59;-2.90;59.00
9919;DHT22;4998;51.024;13.828;2024-01-11T03:29:26;-2.90;59.00
9919;DHT22;4998;51.024;13.828;2024-01-11T03:31:55;-2.90;59.00
9919;DHT22;4998;51.024;13.828;2024-01-11T03:34:22;-3.00;58.90
9919;DHT22;4998;51.024;13.828;2024-01-11T03:36:49;-2.90;58.90
9919;DHT22;4998;51.024;13.828;2024-01-11T03:39:16;-3.00;58.80
9919;DHT22;4998;51.024;13.828;2024-01-11T03:41:44;-3.00;58.80
9919;DHT22;4998;51.024;13.828;2024-01-11T03:44:12;-3.00;58.90
9919;DHT22;4998;51.024;13.828;2024-01-11T03:46:39;-3.00;58.90
9919;DHT22;4998;51.024;13.828;2024-01-11T03:49:08;-3.00;58.90
9919;DHT22;4998;51.024;13.828;2024-01-11T03:51:36;-3.00;59.00
9919;DHT22;4998;51.024;13.828;2024-01-11T03:54:03;-3.00;59.00
9919;DHT22;4998;51.024;13.828;2024-01-11T03:56:31;-3.00;59.10
9919;DHT22;4998;51.024;13.828;2024-01-11T03:58:58;-2.90;59.20
9919;DHT22;4998;51.024;13.828;2024-01-11T04:01:25;-3.00;59.10
9919;DHT22;4998;51.024;13.828;2024-01-11T04:03:52;-3.00;59.20
9919;DHT22;4998;51.024;13.828;2024-01-11T04:06:21;-3.00;59.30
9919;DHT22;4998;51.024;13.828;2024-01-11T04:08:50;-3.00;59.40
9919;DHT22;4998;51.024;13.828;2024-01-11T04:11:18;-3.00;59.40
9919;DHT22;4998;51.024;13.828;2024-01-11T04:13:45;-3.00;59.40
9919;DHT22;4998;51.024;13.828;2024-01-11T04:16:12;-3.00;59.40
9919;DHT22;4998;51.024;13.828;2024-01-11T04:18:39;-3.00;59.20
9919;DHT22;4998;51.024;13.828;2024-01-11T04:21:06;-3.00;59.40
9919;DHT22;4998;51.024;13.828;2024-01-11T04:23:35;-3.00;59.50
9919;DHT22;4998;51.024;13.828;2024-01-11T04:26:03;-3.00;59.50
9919;DHT22;4998;51.024;13.828;2024-01-11T04:28:30;-3.10;59.50
9919;DHT22;4998;51.024;13.828;2024-01-11T04:30:57;-3.10;59.50
9919;DHT22;4998;51.024;13.828;2024-01-11T04:33:24;-3.10;59.50
9919;DHT22;4998;51.024;13.828;2024-01-11T04:35:52;-3.10;59.40
9919;DHT22;4998;51.024;13.828;2024-01-11T04:38:19;-3.10;59.30
9919;DHT22;4998;51.024;13.828;2024-01-11T04:40:47;-3.20;59.20
9919;DHT22;4998;51.024;13.828;2024-01-11T04:43:15;-3.20;59.20
9919;DHT22;4998;51.024;13.828;2024-01-11T04:45:42;-3.20;59.10
9919;DHT22;4998;51.024;13.828;2024-01-11T04:48:09;-3.30;59.10
9919;DHT22;4998;51.024;13.828;2024-01-11T04:50:36;-3.40;59.00
9919;DHT22;4998;51.024;13.828;2024-01-11T04:53:03;-3.40;59.00
9919;DHT22;4998;51.024;13.828;2024-01-11T04:55:30;-3.50;59.10
9919;DHT22;4998;51.024;13.828;2024-01-11T04:57:59;-3.50;59.20
9919;DHT22;4998;51.024;13.828;2024-01-11T05:00:26;-3.60;59.30
9919;DHT22;4998;51.024;13.828;2024-01-11T05:02:53;-3.60;59.20
9919;DHT22;4998;51.024;13.828;2024-01-11T05:05:21;-3.70;59.20
9919;DHT22;4998;51.024;13.828;2024-01-11T05:07:48;-3.70;59.20
9919;DHT22;4998;51.024;13.828;2024-01-11T05:10:16;-3.70;59.20
9919;DHT22;4998;51.024;13.828;2024-01-11T05:12:43;-3.80;59.20
9919;DHT22;4998;51.024;13.828;2024-01-11T05:15:12;-3.80;59.20
9919;DHT22;4998;51.024;13.828;2024-01-11T05:17:39;-3.90;59.40
9919;DHT22;4998;51.024;13.828;2024-01-11T05:20:08;-3.90;59.40
9919;DHT22;4998;51.024;13.828;2024-01-11T05:22:36;-3.90;59.60
9919;DHT22;4998;51.024;13.828;2024-01-11T05:25:04;-3.90;59.70
9919;DHT22;4998;51.024;13.828;2024-01-11T05:27:31;-4.00;59.60
9919;DHT22;4998;51.024;13.828;2024-01-11T05:29:59;-3.80;59.80
9919;DHT22;4998;51.024;13.828;2024-01-11T05:32:28;-3.80;59.90
9919;DHT22;4998;51.024;13.828;2024-01-11T05:34:56;-3.80;60.00
9919;DHT22;4998;51.024;13.828;2024-01-11T05:37:23;-3.80;60.00
9919;DHT22;4998;51.024;13.828;2024-01-11T05:39:51;-3.80;60.00
9919;DHT22;4998;51.024;13.828;2024-01-11T05:42:20;-3.70;60.30
9919;DHT22;4998;51.024;13.828;2024-01-11T05:44:47;-3.70;60.30
9919;DHT22;4998;51.024;13.828;2024-01-11T05:47:14;-3.70;60.30
9919;DHT22;4998;51.024;13.828;2024-01-11T05:49:42;-3.60;60.40
9919;DHT22;4998;51.024;13.828;2024-01-11T05:52:11;-3.60;60.40
9919;DHT22;4998;51.024;13.828;2024-01-11T05:54:38;-3.60;60.40
9919;DHT22;4998;51.024;13.828;2024-01-11T05:57:05;-3.60;60.40
9919;DHT22;4998;51.024;13.828;2024-01-11T05:59:33;-3.50;60.40
9919;DHT22;4998;51.024;13.828;2024-01-11T06:02:00;-3.50;60.50
9919;DHT22;4998;51.024;13.828;2024-01-11T06:04:28;-3.50;60.50
9919;DHT22;4998;51.024;13.828;2024-01-11T06:06:58;-3.50;60.60
9919;DHT22;4998;51.024;13.828;2024-01-11T06:09:25;-3.40;60.70
9919;DHT22;4998;51.024;13.828;2024-01-11T06:11:52;-3.40;60.60
9919;DHT22;4998;51.024;13.828;2024-01-11T06:14:20;-3.40;60.70
9919;DHT22;4998;51.024;13.828;2024-01-11T06:16:47;-3.40;60.80
9919;DHT22;4998;51.024;13.828;2024-01-11T06:19:14;-3.40;60.60
9919;DHT22;4998;51.024;13.828;2024-01-11T06:21:41;-3.30;60.60
9919;DHT22;4998;51.024;13.828;2024-01-11T06:24:10;-3.30;60.50
9919;DHT22;4998;51.024;13.828;2024-01-11T06:26:37;-3.30;60.50
9919;DHT22;4998;51.024;13.828;2024-01-11T06:29:04;-3.30;60.40
9919;DHT22;4998;51.024;13.828;2024-01-11T06:31:31;-3.30;60.40
9919;DHT22;4998;51.024;13.828;2024-01-11T06:33:59;-3.30;60.50
9919;DHT22;4998;51.024;13.828;2024-01-11T06:36:26;-3.30;60.50
9919;DHT22;4998;51.024;13.828;2024-01-11T06:38:53;-3.30;60.40
9919;DHT22;4998;51.024;13.828;2024-01-11T06:41:22;-3.40;60.30
9919;DHT22;4998;51.024;13.828;2024-01-11T06:43:49;-3.30;60.40
9919;DHT22;4998;51.024;13.828;2024-01-11T06:46:20;-3.30;60.20
9919;DHT22;4998;51.024;13.828;2024-01-11T06:48:48;-3.40;60.10
9919;DHT22;4998;51.024;13.828;2024-01-11T06:51:15;-3.40;60.10
9919;DHT22;4998;51.024;13.828;2024-01-11T06:53:42;-3.40;60.20
9919;DHT22;4998;51.024;13.828;2024-01-11T06:56:14;-3.40;60.30
9919;DHT22;4998;51.024;13.828;2024-01-11T06:58:44;-3.30;60.80
9919;DHT22;4998;51.024;13.828;2024-01-11T07:01:12;-3.40;60.70
9919;DHT22;4998;51.024;13.828;2024-01-11T07:03:39;-3.30;61.00
9919;DHT22;4998;51.024;13.828;2024-01-11T07:06:07;-3.30;61.10
9919;DHT22;4998;51.024;13.828;2024-01-11T07:08:35;-3.30;61.10
9919;DHT22;4998;51.024;13.828;2024-01-11T07:11:02;-3.20;61.20
9919;DHT22;4998;51.024;13.828;2024-01-11T07:13:30;-3.20;61.30
9919;DHT22;4998;51.024;13.828;2024-01-11T07:15:59;-3.20;61.20
9919;DHT22;4998;51.024;13.828;2024-01-11T07:18:28;-3.10;61.40
9919;DHT22;4998;51.024;13.828;2024-01-11T07:20:56;-3.10;61.50
9919;DHT22;4998;51.024;13.828;2024-01-11T07:23:24;-3.00;61.60
9919;DHT22;4998;51.024;13.828;2024-01-11T07:25:51;-3.00;61.50
9919;DHT22;4998;51.024;13.828;2024-01-11T07:28:18;-3.00;61.40
9919;DHT22;4998;51.024;13.828;2024-01-11T07:30:50;-2.90;61.50
9919;DHT22;4998;51.024;13.828;2024-01-11T07:33:19;-2.90;61.60
9919;DHT22;4998;51.024;13.828;2024-01-11T07:35:47;-2.90;61.70
9919;DHT22;4998;51.024;13.828;2024-01-11T07:38:14;-2.80;61.80
9919;DHT22;4998;51.024;13.828;2024-01-11T07:40:42;-2.80;61.90
9919;DHT22;4998;51.024;13.828;2024-01-11T07:43:09;-2.80;62.00
9919;DHT22;4998;51.024;13.828;2024-01-11T07:45:36;-2.70;62.00
9919;DHT22;4998;51.024;13.828;2024-01-11T07:48:04;-2.70;61.70
9919;DHT22;4998;51.024;13.828;2024-01-11T07:50:33;-2.70;62.00
9919;DHT22;4998;51.024;13.828;2024-01-11T07:53:01;-2.60;62.10
9919;DHT22;4998;51.024;13.828;2024-01-11T07:55:28;-2.60;62.10
9919;DHT22;4998;51.024;13.828;2024-01-11T07:57:56;-2.60;62.00
9919;DHT22;4998;51.024;13.828;2024-01-11T08:00:24;-2.50;62.00
9919;DHT22;4998;51.024;13.828;2024-01-11T08:02:52;-2.50;62.00
9919;DHT22;4998;51.024;13.828;2024-01-11T08:05:21;-2.50;61.90
9919;DHT22;4998;51.024;13.828;2024-01-11T08:07:51;-2.50;61.90
9919;DHT22;4998;51.024;13.828;2024-01-11T08:10:18;-2.50;61.50
9919;DHT22;4998;51.024;13.828;2024-01-11T08:12:45;-2.50;61.40
9919;DHT22;4998;51.024;13.828;2024-01-11T08:15:13;-2.50;61.50
9919;DHT22;4998;51.024;13.828;2024-01-11T08:17:44;-2.50;61.50
9919;DHT22;4998;51.024;13.828;2024-01-11T08:20:12;-2.50;61.70
9919;DHT22;4998;51.024;13.828;2024-01-11T08:22:40;-2.60;61.70
9919;DHT22;4998;51.024;13.828;2024-01-11T08:25:10;-2.60;62.00
9919;DHT22;4998;51.024;13.828;2024-01-11T08:27:38;-2.50;62.30
9919;DHT22;4998;51.024;13.828;2024-01-11T08:30:07;-2.50;62.40
9919;DHT22;4998;51.024;13.828;2024-01-11T08:32:34;-2.50;62.40
9919;DHT22;4998;51.024;13.828;2024-01-11T08:35:05;-2.40;62.50
9919;DHT22;4998;51.024;13.828;2024-01-11T08:37:34;-2.40;62.60
9919;DHT22;4998;51.024;13.828;2024-01-11T08:40:01;-2.40;62.60
9919;DHT22;4998;51.024;13.828;2024-01-11T08:42:32;-2.30;62.80
9919;DHT22;4998;51.024;13.828;2024-01-11T08:44:59;-2.30;63.00
9919;DHT22;4998;51.024;13.828;2024-01-11T08:47:33;-2.20;63.10
9919;DHT22;4998;51.024;13.828;2024-01-11T08:50:00;-2.20;63.30
9919;DHT22;4998;51.024;13.828;2024-01-11T08:52:32;-2.00;63.60
9919;DHT22;4998;51.024;13.828;2024-01-11T08:54:59;-2.00;63.60
9919;DHT22;4998;51.024;13.828;2024-01-11T08:57:27;-2.00;63.60
9919;DHT22;4998;51.024;13.828;2024-01-11T08:59:56;-1.90;63.70
9919;DHT22;4998;51.024;13.828;2024-01-11T09:02:23;-1.80;63.90
9919;DHT22;4998;51.024;13.828;2024-01-11T09:04:50;-1.80;63.90
9919;DHT22;4998;51.024;13.828;2024-01-11T09:07:17;-1.70;64.00
9919;DHT22;4998;51.024;13.828;2024-01-11T09:09:45;-1.60;64.10
9919;DHT22;4998;51.024;13.828;2024-01-11T09:12:12;-1.50;64.00
9919;DHT22;4998;51.024;13.828;2024-01-11T09:14:39;-1.40;63.60
9919;DHT22;4998;51.024;13.828;2024-01-11T09:17:08;-1.40;63.20
9919;DHT22;4998;51.024;13.828;2024-01-11T09:19:35;-1.30;63.10
9919;DHT22;4998;51.024;13.828;2024-01-11T09:22:05;-1.30;63.10
9919;DHT22;4998;51.024;13.828;2024-01-11T09:24:35;-1.30;62.90
9919;DHT22;4998;51.024;13.828;2024-01-11T09:27:03;-1.30;62.90
9919;DHT22;4998;51.024;13.828;2024-01-11T09:29:30;-1.20;63.10
9919;DHT22;4998;51.024;13.828;2024-01-11T09:31:59;-1.20;63.10
9919;DHT22;4998;51.024;13.828;2024-01-11T09:34:28;-1.20;63.10
9919;DHT22;4998;51.024;13.828;2024-01-11T09:36:55;-1.10;63.10
9919;DHT22;4998;51.024;13.828;2024-01-11T09:39:24;-1.10;63.20
9919;DHT22;4998;51.024;13.828;2024-01-11T09:41:57;-1.00;63.50
9919;DHT22;4998;51.024;13.828;2024-01-11T09:44:25;-1.00;63.60
9919;DHT22;4998;51.024;13.828;2024-01-11T09:46:53;-0.90;63.70
9919;DHT22;4998;51.024;13.828;2024-01-11T09:49:22;-0.80;64.00
9919;DHT22;4998;51.024;13.828;2024-01-11T09:51:52;-0.70;64.10
9919;DHT22;4998;51.024;13.828;2024-01-11T09:54:22;-0.70;64.10
9919;DHT22;4998;51.024;13.828;2024-01-11T09:56:50;-0.60;64.20
9919;DHT22;4998;51.024;13.828;2024-01-11T09:59:19;-0.50;64.20
9919;DHT22;4998;51.024;13.828;2024-01-11T10:01:48;-0.40;64.20
9919;DHT22;4998;51.024;13.828;2024-01-11T10:04:16;-0.30;64.20
9919;DHT22;4998;51.024;13.828;2024-01-11T10:06:43;-0.30;64.30
9919;DHT22;4998;51.024;13.828;2024-01-11T10:09:12;-0.20;64.40
9919;DHT22;4998;51.024;13.828;2024-01-11T10:11:40;-0.10;64.40
9919;DHT22;4998;51.024;13.828;2024-01-11T10:14:07;0.00;64.30
9919;DHT22;4998;51.024;13.828;2024-01-11T10:16:34;0.10;64.10
9919;DHT22;4998;51.024;13.828;2024-01-11T10:19:02;0.10;64.00
9919;DHT22;4998;51.024;13.828;2024-01-11T10:21:29;0.20;63.70
9919;DHT22;4998;51.024;13.828;2024-01-11T10:23:58;0.20;63.60
9919;DHT22;4998;51.024;13.828;2024-01-11T10:26:30;0.20;63.60
9919;DHT22;4998;51.024;13.828;2024-01-11T10:28:59;0.30;63.60
9919;DHT22;4998;51.024;13.828;2024-01-11T10:31:28;0.30;63.60
9919;DHT22;4998;51.024;13.828;2024-01-11T10:33:56;0.40;63.50
9919;DHT22;4998;51.024;13.828;2024-01-11T10:36:24;0.40;63.40
9919;DHT22;4998;51.024;13.828;2024-01-11T10:38:52;0.50;63.40
9919;DHT22;4998;51.024;13.828;2024-01-11T10:41:22;0.50;63.30
9919;DHT22;4998;51.024;13.828;2024-01-11T10:43:51;0.40;63.10
9919;DHT22;4998;51.024;13.828;2024-01-11T10:46:22;0.60;63.20
9919;DHT22;4998;51.024;13.828;2024-01-11T10:48:56;0.60;63.10
9919;DHT22;4998;51.024;13.828;2024-01-11T10:51:26;0.60;63.10
9919;DHT22;4998;51.024;13.828;2024-01-11T10:53:55;0.70;64.00
9919;DHT22;4998;51.024;13.828;2024-01-11T10:56:23;0.70;63.20
9919;DHT22;4998;51.024;13.828;2024-01-11T10:58:53;0.70;63.10
9919;DHT22;4998;51.024;13.828;2024-01-11T11:01:22;0.80;63.20
9919;DHT22;4998;51.024;13.828;2024-01-11T11:03:52;0.80;63.10
9919;DHT22;4998;51.024;13.828;2024-01-11T11:06:22;0.80;63.00
9919;DHT22;4998;51.024;13.828;2024-01-11T11:08:50;0.90;62.90
9919;DHT22;4998;51.024;13.828;2024-01-11T11:11:19;0.90;62.70
9919;DHT22;4998;51.024;13.828;2024-01-11T11:13:47;0.90;62.50
9919;DHT22;4998;51.024;13.828;2024-01-11T11:16:17;0.80;62.30
9919;DHT22;4998;51.024;13.828;2024-01-11T11:18:45;0.80;62.40
9919;DHT22;4998;51.024;13.828;2024-01-11T11:21:12;0.80;62.50
9919;DHT22;4998;51.024;13.828;2024-01-11T11:23:40;0.80;62.70
9919;DHT22;4998;51.024;13.828;2024-01-11T11:26:07;0.80;62.80
9919;DHT22;4998;51.024;13.828;2024-01-11T11:28:41;0.80;63.00
9919;DHT22;4998;51.024;13.828;2024-01-11T11:31:11;0.90;63.30
9919;DHT22;4998;51.024;13.828;2024-01-11T11:33:40;0.90;63.30
9919;DHT22;4998;51.024;13.828;2024-01-11T11:36:12;0.90;63.40
9919;DHT22;4998;51.024;13.828;2024-01-11T11:38:39;1.00;63.70
9919;DHT22;4998;51.024;13.828;2024-01-11T11:41:07;1.10;63.90
9919;DHT22;4998;51.024;13.828;2024-01-11T11:43:34;1.10;64.00
9919;DHT22;4998;51.024;13.828;2024-01-11T11:46:03;1.20;64.30
9919;DHT22;4998;51.024;13.828;2024-01-11T11:48:51;1.50;64.60
9919;DHT22;4998;51.024;13.828;2024-01-11T11:51:18;1.50;64.50
9919;DHT22;4998;51.024;13.828;2024-01-11T11:53:47;1.60;64.60
9919;DHT22;4998;51.024;13.828;2024-01-11T11:56:16;1.70;64.80
9919;DHT22;4998;51.024;13.828;2024-01-11T11:58:44;1.80;64.80
9919;DHT22;4998;51.024;13.828;2024-01-11T12:01:13;1.90;64.80
9919;DHT22;4998;51.024;13.828;2024-01-11T12:03:41;2.00;64.70
9919;DHT22;4998;51.024;13.828;2024-01-11T12:06:14;2.10;64.50
9919;DHT22;4998;51.024;13.828;2024-01-11T12:08:42;2.30;64.20
9919;DHT22;4998;51.024;13.828;2024-01-11T12:11:13;2.40;63.90
9919;DHT22;4998;51.024;13.828;2024-01-11T12:13:40;2.40;63.60
9919;DHT22;4998;51.024;13.828;2024-01-11T12:16:09;2.50;63.30
9919;DHT22;4998;51.024;13.828;2024-01-11T12:18:36;2.60;63.20
9919;DHT22;4998;51.024;13.828;2024-01-11T12:21:04;2.60;63.00
9919;DHT22;4998;51.024;13.828;2024-01-11T12:23:33;2.70;62.80
9919;DHT22;4998;51.024;13.828;2024-01-11T12:26:01;2.80;62.30
9919;DHT22;4998;51.024;13.828;2024-01-11T12:28:31;2.80;62.20
9919;DHT22;4998;51.024;13.828;2024-01-11T12:30:59;2.90;62.00
9919;DHT22;4998;51.024;13.828;2024-01-11T12:33:26;2.90;61.70
9919;DHT22;4998;51.024;13.828;2024-01-11T12:35:54;2.90;61.30
9919;DHT22;4998;51.024;13.828;2024-01-11T12:38:21;3.00;61.00
9919;DHT22;4998;51.024;13.828;2024-01-11T12:40:50;3.00;60.00
9919;DHT22;4998;51.024;13.828;2024-01-11T12:43:18;3.00;59.80
9919;DHT22;4998;51.024;13.828;2024-01-11T12:45:45;3.00;59.60
9919;DHT22;4998;51.024;13.828;2024-01-11T12:48:13;3.00;59.50
9919;DHT22;4998;51.024;13.828;2024-01-11T12:50:42;3.10;59.20
9919;DHT22;4998;51.024;13.828;2024-01-11T12:53:10;3.10;59.10
9919;DHT22;4998;51.024;13.828;2024-01-11T12:55:44;3.10;58.80
9919;DHT22;4998;51.024;13.828;2024-01-11T12:58:13;3.10;58.20
9919;DHT22;4998;51.024;13.828;2024-01-11T13:00:40;3.10;58.00
9919;DHT22;4998;51.024;13.828;2024-01-11T13:03:07;3.10;58.10
9919;DHT22;4998;51.024;13.828;2024-01-11T13:05:35;3.10;58.20
9919;DHT22;4998;51.024;13.828;2024-01-11T13:08:08;3.10;58.30
9919;DHT22;4998;51.024;13.828;2024-01-11T13:10:35;3.20;58.40
9919;DHT22;4998;51.024;13.828;2024-01-11T13:13:04;3.20;58.50
9919;DHT22;4998;51.024;13.828;2024-01-11T13:15:32;3.20;58.40
9919;DHT22;4998;51.024;13.828;2024-01-11T13:18:00;3.20;58.10
9919;DHT22;4998;51.024;13.828;2024-01-11T13:20:28;3.20;57.90
9919;DHT22;4998;51.024;13.828;2024-01-11T13:23:13;3.20;57.40
9919;DHT22;4998;51.024;13.828;2024-01-11T13:25:41;3.20;57.40
9919;DHT22;4998;51.024;13.828;2024-01-11T13:28:09;3.20;57.70
9919;DHT22;4998;51.024;13.828;2024-01-11T13:30:39;3.20;57.70
9919;DHT22;4998;51.024;13.828;2024-01-11T13:33:07;3.20;57.40
9919;DHT22;4998;51.024;13.828;2024-01-11T13:35:36;3.20;57.70
9919;DHT22;4998;51.024;13.828;2024-01-11T13:38:04;3.20;57.10
9919;DHT22;4998;51.024;13.828;2024-01-11T13:40:32;3.20;57.00
9919;DHT22;4998;51.024;13.828;2024-01-11T13:43:00;3.20;56.90
9919;DHT22;4998;51.024;13.828;2024-01-11T13:45:27;3.30;56.40
9919;DHT22;4998;51.024;13.828;2024-01-11T13:47:57;3.20;56.60
9919;DHT22;4998;51.024;13.828;2024-01-11T13:50:24;3.30;56.60
9919;DHT22;4998;51.024;13.828;2024-01-11T13:52:52;3.20;56.60
9919;DHT22;4998;51.024;13.828;2024-01-11T13:55:19;3.30;56.40
9919;DHT22;4998;51.024;13.828;2024-01-11T13:57:47;3.30;56.30
9919;DHT22;4998;51.024;13.828;2024-01-11T14:00:15;3.20;56.20
9919;DHT22;4998;51.024;13.828;2024-01-11T14:02:44;3.20;55.90
9919;DHT22;4998;51.024;13.828;2024-01-11T14:05:12;3.20;55.90
9919;DHT22;4998;51.024;13.828;2024-01-11T14:07:42;3.20;55.80
9919;DHT22;4998;51.024;13.828;2024-01-11T14:10:11;3.20;55.60
9919;DHT22;4998;51.024;13.828;2024-01-11T14:12:38;3.20;55.50
9919;DHT22;4998;51.024;13.828;2024-01-11T14:15:07;3.20;55.60
9919;DHT22;4998;51.024;13.828;2024-01-11T14:17:37;3.10;55.40
9919;DHT22;4998;51.024;13.828;2024-01-11T14:20:06;3.10;55.50
9919;DHT22;4998;51.024;13.828;2024-01-11T14:22:39;3.10;55.50
9919;DHT22;4998;51.024;13.828;2024-01-11T14:25:07;3.10;55.50
9919;DHT22;4998;51.024;13.828;2024-01-11T14:27:36;3.10;55.20
9919;DHT22;4998;51.024;13.828;2024-01-11T14:30:05;3.10;55.00
9919;DHT22;4998;51.024;13.828;2024-01-11T14:32:32;3.00;54.90
9919;DHT22;4998;51.024;13.828;2024-01-11T14:35:00;3.00;54.80
9919;DHT22;4998;51.024;13.828;2024-01-11T14:37:30;3.00;54.60
9919;DHT22;4998;51.024;13.828;2024-01-11T14:39:59;3.00;54.50
9919;DHT22;4998;51.024;13.828;2024-01-11T14:42:26;3.00;54.20
9919;DHT22;4998;51.024;13.828;2024-01-11T14:44:54;2.90;54.40
9919;DHT22;4998;51.024;13.828;2024-01-11T14:47:22;2.90;53.90
9919;DHT22;4998;51.024;13.828;2024-01-11T14:49:50;2.90;53.70
9919;DHT22;4998;51.024;13.828;2024-01-11T14:52:17;2.90;53.50
9919;DHT22;4998;51.024;13.828;2024-01-11T14:54:44;2.90;53.40
9919;DHT22;4998;51.024;13.828;2024-01-11T14:57:14;2.80;52.90
9919;DHT22;4998;51.024;13.828;2024-01-11T14:59:41;2.80;52.80
9919;DHT22;4998;51.024;13.828;2024-01-11T15:02:09;2.70;52.80
9919;DHT22;4998;51.024;13.828;2024-01-11T15:04:36;2.70;52.70
9919;DHT22;4998;51.024;13.828;2024-01-11T15:07:03;2.70;52.80
9919;DHT22;4998;51.024;13.828;2024-01-11T15:09:30;2.70;52.60
9919;DHT22;4998;51.024;13.828;2024-01-11T15:11:57;2.60;52.70
9919;DHT22;4998;51.024;13.828;2024-01-11T15:14:27;2.60;53.00
9919;DHT22;4998;51.024;13.828;2024-01-11T15:16:54;2.60;53.10
9919;DHT22;4998;51.024;13.828;2024-01-11T15:19:21;2.50;53.10
9919;DHT22;4998;51.024;13.828;2024-01-11T15:21:49;2.50;53.10
9919;DHT22;4998;51.024;13.828;2024-01-11T15:24:17;2.50;53.20
9919;DHT22;4998;51.024;13.828;2024-01-11T15:26:44;2.50;53.30
9919;DHT22;4998;51.024;13.828;2024-01-11T15:29:12;2.50;53.50
9919;DHT22;4998;51.024;13.828;2024-01-11T15:31:41;2.50;53.40
9919;DHT22;4998;51.024;13.828;2024-01-11T15:34:10;2.40;53.30
9919;DHT22;4998;51.024;13.828;2024-01-11T15:36:38;2.40;53.60
9919;DHT22;4998;51.024;13.828;2024-01-11T15:39:06;2.40;53.60
9919;DHT22;4998;51.024;13.828;2024-01-11T15:41:33;2.30;53.40
9919;DHT22;4998;51.024;13.828;2024-01-11T15:44:01;2.30;53.40
9919;DHT22;4998;51.024;13.828;2024-01-11T15:46:29;2.30;53.50
9919;DHT22;4998;51.024;13.828;2024-01-11T15:48:58;2.30;53.60
9919;DHT22;4998;51.024;13.828;2024-01-11T15:51:25;2.30;53.50
9919;DHT22;4998;51.024;13.828;2024-01-11T15:53:53;2.20;53.40
9919;DHT22;4998;51.024;13.828;2024-01-11T15:56:20;2.10;53.10
9919;DHT22;4998;51.024;13.828;2024-01-11T15:58:47;2.10;53.50